Time;durP1;ratioP1;P1;durP2;ratioP2;P2;SDS_P1;SDS_P2;PMS_P1;PMS_P2;Temp;Humidity;BMP_temperature;BMP_pressure;BME280_temperature;BME280_humidity;BME280_pressure;Samples;Min_cycle;Max_cycle;Signal;HPM_P1;HPM_P2
2022/05/26 00:00:36;;;;;;;2.23;1.03;;;;;;;;;;5054305;28;20228;-56
2022/05/26 00:03:02;;;;;;;3.97;1.10;;;;;;;;;;5054285;28;20242;-56
2022/05/26 00:05:28;;;;;;;5.93;1.20;;;;;;;;;;5054632;28;20228;-57
2022/05/26 00:07:56;;;;;;;2.08;1.10;;;;;;;;;;5053208;28;20393;-56
2022/05/26 00:10:22;;;;;;;4.73;1.23;;;;;;;;;;5053921;28;20224;-56
2022/05/26 00:12:50;;;;;;;2.97;1.40;;;;;;;;;;5054665;28;20204;-56
2022/05/26 00:15:16;;;;;;;2.73;1.13;;;;;;;;;;5053947;28;20242;-57
2022/05/26 00:17:42;;;;;;;1.87;1.20;;;;;;;;;;5053142;28;20204;-56
2022/05/26 00:20:09;;;;;;;3.53;1.40;;;;;;;;;;5053944;28;20239;-56
2022/05/26 00:22:35;;;;;;;1.93;1.50;;;;;;;;;;5052232;28;20680;-56
2022/05/26 00:25:02;;;;;;;3.20;1.40;;;;;;;;;;5054093;28;20228;-55
2022/05/26 00:27:28;;;;;;;3.17;1.93;;;;;;;;;;5054257;28;20223;-55
2022/05/26 00:29:54;;;;;;;4.63;1.63;;;;;;;;;;5054142;28;20705;-55
2022/05/26 00:32:20;;;;;;;3.43;1.70;;;;;;;;;;5054072;28;20196;-55
2022/05/26 00:34:46;;;;;;;3.30;1.80;;;;;;;;;;5054022;28;20219;-55
2022/05/26 00:37:12;;;;;;;4.30;1.80;;;;;;;;;;5053841;28;20675;-55
2022/05/26 00:39:41;;;;;;;3.30;2.23;;;;;;;;;;5053507;28;20232;-55
2022/05/26 00:42:08;;;;;;;3.03;1.70;;;;;;;;;;5053510;28;20254;-56
2022/05/26 00:44:35;;;;;;;2.17;1.73;;;;;;;;;;5053822;28;20286;-57
2022/05/26 00:47:03;;;;;;;2.37;1.87;;;;;;;;;;5053341;28;20200;-56
2022/05/26 00:49:39;;;;;;;4.13;1.77;;;;;;;;;;5053726;28;20197;-56
2022/05/26 00:52:06;;;;;;;2.73;1.70;;;;;;;;;;5053552;28;20685;-56
2022/05/26 00:54:33;;;;;;;4.17;2.00;;;;;;;;;;5053647;28;20283;-56
2022/05/26 00:57:01;;;;;;;2.57;1.70;;;;;;;;;;5053530;28;20671;-56
2022/05/26 00:59:33;;;;;;;3.67;1.80;;;;;;;;;;5053244;28;20220;-56
2022/05/26 01:02:00;;;;;;;3.50;1.80;;;;;;;;;;5053525;28;20253;-56
2022/05/26 01:04:27;;;;;;;4.23;1.90;;;;;;;;;;5053232;28;20224;-57
2022/05/26 01:06:56;;;;;;;3.03;1.80;;;;;;;;;;5053266;28;20208;-57
2022/05/26 01:09:22;;;;;;;3.50;1.77;;;;;;;;;;5053178;28;20587;-57
2022/05/26 01:11:48;;;;;;;2.10;1.83;;;;;;;;;;5053116;28;20742;-56
2022/05/26 01:14:18;;;;;;;4.50;1.90;;;;;;;;;;5053022;28;20335;-56
2022/05/26 01:16:48;;;;;;;3.90;1.93;;;;;;;;;;5053141;28;20658;-56
2022/05/26 01:19:29;;;;;;;3.10;1.87;;;;;;;;;;5052833;28;20204;-56
2022/05/26 01:21:58;;;;;;;2.90;1.70;;;;;;;;;;5053012;28;20231;-57
2022/05/26 01:24:54;;;;;;;6.47;1.90;;;;;;;;;;5052728;28;20303;-57
2022/05/26 01:27:27;;;;;;;2.67;1.77;;;;;;;;;;5052686;28;20663;-56
2022/05/26 01:30:10;;;;;;;2.23;1.80;;;;;;;;;;5052910;28;20287;-56
2022/05/26 01:32:43;;;;;;;4.03;1.60;;;;;;;;;;5052674;28;20682;-57
2022/05/26 01:35:15;;;;;;;4.03;2.20;;;;;;;;;;5052502;28;20204;-57
2022/05/26 01:37:44;;;;;;;4.37;2.33;;;;;;;;;;5053023;28;20196;-57
2022/05/26 01:40:14;;;;;;;2.50;1.70;;;;;;;;;;5052249;28;20281;-57
2022/05/26 01:42:44;;;;;;;3.53;2.17;;;;;;;;;;5052519;28;20214;-56
2022/05/26 01:45:14;;;;;;;4.07;1.90;;;;;;;;;;5052344;28;20287;-56
2022/05/26 01:47:47;;;;;;;4.50;2.27;;;;;;;;;;5052415;28;20206;-57
2022/05/26 01:50:16;;;;;;;2.93;2.00;;;;;;;;;;5052563;28;20538;-57
2022/05/26 01:52:45;;;;;;;3.40;2.13;;;;;;;;;;5052569;28;20275;-56
2022/05/26 01:55:13;;;;;;;2.43;2.20;;;;;;;;;;5052316;28;20282;-56
2022/05/26 01:57:43;;;;;;;3.57;2.03;;;;;;;;;;5052450;28;20295;-57
2022/05/26 02:00:11;;;;;;;2.70;2.17;;;;;;;;;;5052234;28;20303;-56
2022/05/26 02:02:39;;;;;;;4.53;2.23;;;;;;;;;;5052164;28;20210;-57
2022/05/26 02:05:08;;;;;;;4.90;2.00;;;;;;;;;;5052297;28;20208;-57
2022/05/26 02:07:36;;;;;;;4.87;2.50;;;;;;;;;;5052068;28;20200;-56
2022/05/26 02:10:05;;;;;;;5.03;2.30;;;;;;;;;;5051944;28;20204;-56
2022/05/26 02:12:33;;;;;;;2.37;2.17;;;;;;;;;;5051988;28;20200;-56
2022/05/26 02:15:00;;;;;;;6.20;2.53;;;;;;;;;;5051947;28;20240;-56
2022/05/26 02:17:29;;;;;;;3.33;2.30;;;;;;;;;;5051853;28;20566;-56
2022/05/26 02:19:59;;;;;;;4.47;2.33;;;;;;;;;;5051937;28;20220;-57
2022/05/26 02:22:28;;;;;;;3.97;2.40;;;;;;;;;;5051847;28;20578;-56
2022/05/26 02:24:57;;;;;;;3.33;2.10;;;;;;;;;;5051926;28;20273;-57
2022/05/26 02:27:26;;;;;;;4.87;2.20;;;;;;;;;;5051855;28;20228;-57
2022/05/26 02:29:52;;;;;;;5.17;2.50;;;;;;;;;;5051838;28;20201;-56
2022/05/26 02:32:19;;;;;;;4.97;2.40;;;;;;;;;;5051720;28;20532;-56
2022/05/26 02:34:45;;;;;;;6.03;2.90;;;;;;;;;;5051825;28;20654;-56
2022/05/26 02:37:12;;;;;;;4.57;2.40;;;;;;;;;;5051694;28;20213;-56
2022/05/26 02:39:39;;;;;;;4.90;2.80;;;;;;;;;;5050892;28;20220;-56
2022/05/26 02:42:05;;;;;;;3.70;2.47;;;;;;;;;;5051397;28;20671;-57
2022/05/26 02:44:32;;;;;;;3.70;2.30;;;;;;;;;;5051805;28;20626;-56
2022/05/26 02:47:04;;;;;;;6.80;2.67;;;;;;;;;;5051738;28;20265;-55
2022/05/26 02:49:38;;;;;;;4.10;2.53;;;;;;;;;;5051855;28;20192;-55
2022/05/26 02:52:06;;;;;;;2.53;2.13;;;;;;;;;;5051552;28;20242;-56
2022/05/26 02:54:39;;;;;;;3.83;2.40;;;;;;;;;;5051626;28;20196;-56
2022/05/26 02:57:09;;;;;;;3.20;2.40;;;;;;;;;;5051574;28;20291;-56
2022/05/26 02:59:40;;;;;;;2.97;2.07;;;;;;;;;;5051421;28;20710;-56
2022/05/26 03:02:09;;;;;;;4.20;2.60;;;;;;;;;;5051726;28;20273;-56
2022/05/26 03:04:38;;;;;;;5.63;2.67;;;;;;;;;;5051695;28;20196;-55
2022/05/26 03:07:08;;;;;;;3.33;2.30;;;;;;;;;;5051472;28;20204;-55
2022/05/26 03:09:34;;;;;;;3.80;2.47;;;;;;;;;;5051417;28;20670;-56
2022/05/26 03:12:00;;;;;;;4.33;3.00;;;;;;;;;;5051667;28;20200;-55
2022/05/26 03:14:28;;;;;;;4.87;3.13;;;;;;;;;;5051240;28;20242;-56
2022/05/26 03:16:54;;;;;;;4.50;2.73;;;;;;;;;;5051429;28;20208;-57
2022/05/26 03:19:20;;;;;;;4.83;3.10;;;;;;;;;;5051461;28;20677;-57
2022/05/26 03:21:47;;;;;;;4.13;3.17;;;;;;;;;;5051580;28;20243;-56
2022/05/26 03:24:13;;;;;;;5.17;3.80;;;;;;;;;;5051353;28;20566;-56
2022/05/26 03:26:39;;;;;;;6.97;3.50;;;;;;;;;;5051440;28;20201;-56
2022/05/26 03:29:06;;;;;;;4.07;3.67;;;;;;;;;;5051312;28;20202;-56
2022/05/26 03:31:33;;;;;;;6.40;4.87;;;;;;;;;;5051308;28;20531;-56
2022/05/26 03:42:16;;;;;;;6.90;5.67;;;;;;;;;;5051237;28;20199;-56
2022/05/26 03:44:42;;;;;;;7.07;5.80;;;;;;;;;;5051311;28;20204;-56
2022/05/26 03:47:10;;;;;;;6.83;5.80;;;;;;;;;;5050957;28;20204;-56
2022/05/26 03:49:36;;;;;;;7.67;6.23;;;;;;;;;;5050850;28;20242;-56
2022/05/26 03:52:02;;;;;;;7.17;6.47;;;;;;;;;;5052266;28;20200;-56
2022/05/26 03:54:30;;;;;;;6.33;5.73;;;;;;;;;;5054741;28;20290;-56
2022/05/26 03:56:56;;;;;;;6.73;5.80;;;;;;;;;;5054750;28;20257;-57
2022/05/26 03:59:22;;;;;;;7.70;6.13;;;;;;;;;;5054464;28;20208;-56
2022/05/26 04:01:48;;;;;;;8.50;6.03;;;;;;;;;;5054587;28;20192;-56
2022/05/26 04:04:15;;;;;;;7.80;6.43;;;;;;;;;;5054623;28;20307;-56
2022/05/26 04:06:41;;;;;;;11.40;7.43;;;;;;;;;;5054588;28;20258;-57
2022/05/26 04:09:07;;;;;;;7.37;6.67;;;;;;;;;;5054297;28;20204;-57
2022/05/26 04:11:33;;;;;;;8.20;7.30;;;;;;;;;;5054430;28;20292;-57
2022/05/26 04:13:59;;;;;;;6.83;6.23;;;;;;;;;;5054362;28;20283;-56
2022/05/26 04:16:25;;;;;;;7.13;6.43;;;;;;;;;;5054261;28;20283;-56
2022/05/26 04:18:52;;;;;;;8.13;7.13;;;;;;;;;;5054282;28;20192;-57
2022/05/26 04:21:19;;;;;;;7.27;6.50;;;;;;;;;;5053992;28;20228;-56
2022/05/26 04:23:45;;;;;;;10.03;7.23;;;;;;;;;;5054194;28;20572;-57
2022/05/26 04:26:11;;;;;;;7.70;6.90;;;;;;;;;;5053966;28;20645;-56
2022/05/26 04:28:37;;;;;;;8.33;7.43;;;;;;;;;;5054197;28;20200;-57
2022/05/26 04:31:03;;;;;;;10.07;7.57;;;;;;;;;;5054055;28;20222;-57
2022/05/26 04:33:30;;;;;;;8.23;7.40;;;;;;;;;;5053985;28;20589;-57
2022/05/26 04:35:56;;;;;;;9.57;7.33;;;;;;;;;;5054113;28;20192;-57
2022/05/26 04:38:23;;;;;;;7.67;6.87;;;;;;;;;;5053881;28;20226;-57
2022/05/26 04:40:55;;;;;;;8.50;7.57;;;;;;;;;;5053846;28;20228;-57
2022/05/26 04:43:21;;;;;;;10.70;7.00;;;;;;;;;;5053769;28;20197;-57
2022/05/26 04:45:47;;;;;;;9.73;7.43;;;;;;;;;;5053885;28;20196;-58
2022/05/26 04:48:17;;;;;;;10.20;7.57;;;;;;;;;;5053689;28;20616;-58
2022/05/26 04:50:43;;;;;;;8.67;7.73;;;;;;;;;;5053831;28;20231;-58
2022/05/26 04:53:09;;;;;;;8.70;7.73;;;;;;;;;;5053378;28;20232;-59
2022/05/26 04:55:36;;;;;;;11.27;8.70;;;;;;;;;;5053303;28;20259;-59
2022/05/26 04:58:02;;;;;;;10.57;8.03;;;;;;;;;;5053585;28;20559;-58
2022/05/26 05:00:28;;;;;;;9.03;8.13;;;;;;;;;;5053439;28;20223;-58
2022/05/26 05:02:54;;;;;;;9.33;8.43;;;;;;;;;;5053022;28;20612;-58
2022/05/26 05:05:21;;;;;;;11.00;8.27;;;;;;;;;;5053134;28;20667;-59
2022/05/26 05:07:47;;;;;;;9.67;8.60;;;;;;;;;;5053347;28;20662;-58
2022/05/26 05:10:13;;;;;;;11.37;9.57;;;;;;;;;;5053268;28;20193;-58
2022/05/26 05:12:40;;;;;;;11.80;9.57;;;;;;;;;;5053315;28;20204;-58
2022/05/26 05:15:09;;;;;;;10.20;9.20;;;;;;;;;;5052909;28;20228;-58
2022/05/26 05:17:35;;;;;;;9.67;8.67;;;;;;;;;;5053132;28;20197;-59
2022/05/26 05:20:01;;;;;;;10.80;9.70;;;;;;;;;;5053095;28;20640;-59
2022/05/26 05:22:29;;;;;;;9.63;8.63;;;;;;;;;;5053017;28;20196;-58
2022/05/26 05:24:57;;;;;;;12.57;8.40;;;;;;;;;;5052825;28;20586;-59
2022/05/26 05:27:25;;;;;;;11.93;8.90;;;;;;;;;;5052836;28;20216;-58
2022/05/26 05:29:54;;;;;;;10.07;8.90;;;;;;;;;;5052919;28;20275;-59
2022/05/26 05:32:22;;;;;;;11.40;9.00;;;;;;;;;;5052755;28;20239;-59
2022/05/26 05:34:50;;;;;;;9.10;8.20;;;;;;;;;;5052678;28;20205;-59
2022/05/26 05:37:16;;;;;;;11.63;8.80;;;;;;;;;;5052377;28;20689;-59
2022/05/26 05:39:42;;;;;;;10.53;9.43;;;;;;;;;;5052780;28;20250;-59
2022/05/26 05:42:08;;;;;;;10.27;9.37;;;;;;;;;;5052569;28;20199;-59
2022/05/26 05:44:34;;;;;;;11.53;9.03;;;;;;;;;;5052478;28;20732;-59
2022/05/26 05:47:02;;;;;;;12.73;8.83;;;;;;;;;;5052623;28;20223;-59
2022/05/26 05:49:28;;;;;;;12.27;9.50;;;;;;;;;;5052458;28;20208;-59
2022/05/26 05:51:55;;;;;;;11.93;9.87;;;;;;;;;;5052445;28;20254;-59
2022/05/26 05:54:21;;;;;;;10.23;8.43;;;;;;;;;;5052226;28;20211;-59
2022/05/26 05:56:48;;;;;;;12.70;9.63;;;;;;;;;;5052426;28;20204;-58
2022/05/26 05:59:14;;;;;;;12.77;9.47;;;;;;;;;;5052341;28;20204;-58
2022/05/26 06:01:40;;;;;;;10.37;8.70;;;;;;;;;;5052193;28;20228;-58
2022/05/26 06:04:08;;;;;;;12.67;8.70;;;;;;;;;;5052142;28;20250;-58
2022/05/26 06:06:35;;;;;;;9.77;8.53;;;;;;;;;;5052176;28;20258;-57
2022/05/26 06:09:01;;;;;;;10.37;8.07;;;;;;;;;;5052276;28;20195;-57
2022/05/26 06:11:27;;;;;;;9.77;8.37;;;;;;;;;;5052155;28;20198;-57
2022/05/26 06:13:54;;;;;;;12.07;9.00;;;;;;;;;;5051591;28;20523;-57
2022/05/26 06:16:20;;;;;;;11.50;8.20;;;;;;;;;;5051502;28;20200;-57
2022/05/26 06:18:48;;;;;;;12.33;8.30;;;;;;;;;;5052222;28;20196;-57
2022/05/26 06:21:15;;;;;;;12.13;7.43;;;;;;;;;;5051901;28;20231;-57
2022/05/26 06:23:41;;;;;;;8.73;7.77;;;;;;;;;;5051950;28;20208;-57
2022/05/26 06:26:07;;;;;;;9.07;7.60;;;;;;;;;;5051723;28;20662;-58
2022/05/26 06:31:20;;;;;;;13.93;7.60;;;;;;;;;;5051522;28;20275;-55
2022/05/26 06:39:16;;;;;;;12.80;7.93;;;;;;;;;;5051597;28;20203;-56
2022/05/26 06:44:27;;;;;;;12.23;7.60;;;;;;;;;;5051646;28;20694;-58
2022/05/26 06:46:53;;;;;;;11.70;7.20;;;;;;;;;;5051625;28;20200;-57
2022/05/26 06:49:19;;;;;;;9.13;6.73;;;;;;;;;;5051449;28;20218;-58
2022/05/26 06:51:47;;;;;;;9.67;6.33;;;;;;;;;;5051627;28;20774;-56
2022/05/26 06:54:13;;;;;;;9.53;6.40;;;;;;;;;;5051250;28;20574;-55
2022/05/26 06:56:38;;;;;;;6.93;5.60;;;;;;;;;;5051380;28;20200;-56
2022/05/26 06:59:05;;;;;;;9.77;6.27;;;;;;;;;;5051397;28;20208;-56
2022/05/26 07:01:31;;;;;;;12.63;6.30;;;;;;;;;;5051418;28;20227;-57
2022/05/26 07:03:57;;;;;;;9.17;5.87;;;;;;;;;;5051528;28;20204;-57
2022/05/26 07:06:24;;;;;;;10.40;5.63;;;;;;;;;;5051477;28;20492;-57
2022/05/26 07:08:51;;;;;;;8.70;5.57;;;;;;;;;;5051351;28;20197;-57
2022/05/26 07:11:18;;;;;;;8.50;5.00;;;;;;;;;;5051367;28;20248;-57
2022/05/26 07:13:45;;;;;;;9.23;5.37;;;;;;;;;;5051485;28;20200;-57
2022/05/26 07:16:11;;;;;;;7.77;5.30;;;;;;;;;;5051115;28;20239;-57
2022/05/26 07:18:37;;;;;;;10.07;5.33;;;;;;;;;;5051238;28;20570;-57
2022/05/26 07:21:03;;;;;;;7.00;5.07;;;;;;;;;;5051277;28;20286;-57
2022/05/26 07:23:29;;;;;;;7.47;4.23;;;;;;;;;;5051561;28;20209;-57
2022/05/26 07:25:57;;;;;;;10.63;4.23;;;;;;;;;;5052054;28;20648;-57
2022/05/26 07:28:23;;;;;;;8.30;3.60;;;;;;;;;;5054974;28;20211;-57
2022/05/26 07:30:51;;;;;;;9.63;4.43;;;;;;;;;;5054964;28;20592;-57
2022/05/26 07:33:17;;;;;;;7.23;3.57;;;;;;;;;;5054944;28;20731;-57
2022/05/26 07:35:43;;;;;;;5.73;3.53;;;;;;;;;;5055147;28;20229;-57
2022/05/26 07:43:39;;;;;;;8.90;3.93;;;;;;;;;;5054778;28;20191;-57
2022/05/26 07:46:06;;;;;;;7.40;3.83;;;;;;;;;;5053103;28;20613;-57
2022/05/26 07:48:32;;;;;;;6.40;3.40;;;;;;;;;;5054393;28;20280;-57
2022/05/26 07:50:58;;;;;;;7.43;3.33;;;;;;;;;;5054806;28;20609;-56
2022/05/26 07:53:24;;;;;;;8.17;3.50;;;;;;;;;;5054722;28;20681;-56
2022/05/26 07:55:50;;;;;;;7.20;3.50;;;;;;;;;;5054509;28;20223;-56
2022/05/26 07:58:17;;;;;;;7.57;3.30;;;;;;;;;;5054462;28;20251;-56
2022/05/26 08:00:45;;;;;;;5.17;2.70;;;;;;;;;;5054687;28;20226;-56
2022/05/26 08:03:11;;;;;;;9.07;3.50;;;;;;;;;;5054546;28;20202;-56
2022/05/26 08:05:38;;;;;;;7.63;3.33;;;;;;;;;;5054284;28;20518;-57
2022/05/26 08:08:04;;;;;;;6.17;3.00;;;;;;;;;;5054405;28;20207;-57
2022/05/26 08:10:30;;;;;;;7.70;3.10;;;;;;;;;;5054208;28;20190;-56
2022/05/26 08:12:56;;;;;;;6.20;2.63;;;;;;;;;;5054344;28;20209;-56
2022/05/26 08:15:22;;;;;;;5.00;2.57;;;;;;;;;;5053930;28;20291;-56
2022/05/26 08:17:50;;;;;;;6.73;3.10;;;;;;;;;;5053814;28;20201;-56
2022/05/26 08:20:16;;;;;;;4.60;2.90;;;;;;;;;;5053730;28;20565;-56
2022/05/26 08:22:42;;;;;;;5.93;2.73;;;;;;;;;;5054159;28;20194;-56
2022/05/26 08:25:10;;;;;;;7.13;2.83;;;;;;;;;;5053865;28;20222;-56
2022/05/26 08:27:36;;;;;;;5.17;2.60;;;;;;;;;;5054007;28;20200;-56
2022/05/26 08:30:02;;;;;;;8.03;2.87;;;;;;;;;;5053989;28;20230;-56
2022/05/26 08:32:28;;;;;;;5.03;2.53;;;;;;;;;;5053816;28;20250;-56
2022/05/26 08:34:58;;;;;;;5.40;2.47;;;;;;;;;;5054109;28;20200;-56
2022/05/26 08:37:24;;;;;;;6.73;2.37;;;;;;;;;;5052835;28;20301;-57
2022/05/26 08:39:50;;;;;;;4.73;2.03;;;;;;;;;;5053708;28;20219;-55
2022/05/26 08:42:18;;;;;;;4.53;1.80;;;;;;;;;;5053761;28;20192;-55
2022/05/26 08:44:44;;;;;;;4.90;2.20;;;;;;;;;;5053858;28;20297;-55
2022/05/26 08:47:11;;;;;;;6.30;2.57;;;;;;;;;;5053498;28;20282;-55
2022/05/26 08:49:39;;;;;;;5.10;2.17;;;;;;;;;;5053501;28;20631;-55
2022/05/26 08:52:13;;;;;;;4.10;2.40;;;;;;;;;;5053603;28;20287;-55
2022/05/26 08:54:43;;;;;;;3.83;2.10;;;;;;;;;;5053245;28;20234;-55
2022/05/26 08:57:12;;;;;;;5.53;1.90;;;;;;;;;;5053244;28;20203;-55
2022/05/26 08:59:40;;;;;;;6.80;2.23;;;;;;;;;;5053216;28;20196;-55
2022/05/26 09:02:14;;;;;;;5.13;2.23;;;;;;;;;;5053225;28;20207;-55
2022/05/26 09:04:40;;;;;;;3.97;1.83;;;;;;;;;;5053260;28;20196;-55
2022/05/26 09:12:57;;;;;;;4.30;1.85;;;;;;;;;;5051674;28;20459;-54
2022/05/26 09:15:23;;;;;;;5.00;1.60;;;;;;;;;;5052866;28;20457;-56
2022/05/26 09:17:49;;;;;;;3.47;1.23;;;;;;;;;;5052666;28;20667;-54
2022/05/26 09:20:36;;;;;;;4.87;1.70;;;;;;;;;;5052982;28;20254;-54
2022/05/26 09:23:14;;;;;;;3.20;1.60;;;;;;;;;;5052754;28;20211;-54
2022/05/26 09:25:43;;;;;;;4.17;1.47;;;;;;;;;;5052748;28;20216;-53
2022/05/26 09:28:09;;;;;;;2.70;1.50;;;;;;;;;;5052632;28;20538;-54
2022/05/26 09:30:36;;;;;;;4.70;1.33;;;;;;;;;;5052603;28;20204;-54
2022/05/26 09:33:02;;;;;;;3.00;1.37;;;;;;;;;;5053124;28;20595;-55
2022/05/26 09:35:29;;;;;;;4.03;1.60;;;;;;;;;;5052502;28;20678;-56
2022/05/26 09:37:56;;;;;;;3.43;1.20;;;;;;;;;;5052831;28;20195;-56
2022/05/26 09:40:27;;;;;;;4.23;1.40;;;;;;;;;;5052497;28;20306;-55
2022/05/26 09:42:58;;;;;;;4.83;1.50;;;;;;;;;;5052898;28;20196;-55
2022/05/26 09:45:24;;;;;;;4.60;1.83;;;;;;;;;;5052476;28;20199;-56
2022/05/26 09:47:57;;;;;;;2.23;1.30;;;;;;;;;;5052687;28;20250;-55
2022/05/26 09:50:40;;;;;;;3.87;1.47;;;;;;;;;;5052550;28;20192;-56
2022/05/26 09:53:07;;;;;;;5.13;2.00;;;;;;;;;;5052491;28;20203;-56
2022/05/26 09:55:41;;;;;;;6.50;2.03;;;;;;;;;;5052338;28;20615;-56
2022/05/26 09:58:08;;;;;;;4.00;1.60;;;;;;;;;;5052647;28;20559;-56
2022/05/26 10:00:36;;;;;;;4.50;1.87;;;;;;;;;;5052045;28;20212;-56
2022/05/26 10:03:05;;;;;;;3.03;1.70;;;;;;;;;;5052482;28;20199;-56
2022/05/26 10:05:37;;;;;;;4.63;1.90;;;;;;;;;;5052328;28;20270;-56
2022/05/26 10:08:09;;;;;;;4.20;1.60;;;;;;;;;;5052324;28;20655;-55
2022/05/26 10:10:39;;;;;;;4.63;1.83;;;;;;;;;;5052162;28;20606;-55
2022/05/26 10:13:11;;;;;;;4.90;1.70;;;;;;;;;;5052222;28;20253;-56
2022/05/26 10:15:40;;;;;;;4.50;1.50;;;;;;;;;;5051854;28;20235;-56
2022/05/26 10:18:15;;;;;;;4.43;1.67;;;;;;;;;;5052224;28;20944;-56
2022/05/26 10:20:48;;;;;;;5.13;1.77;;;;;;;;;;5052181;28;20725;-56
2022/05/26 10:23:23;;;;;;;3.53;1.80;;;;;;;;;;5052208;28;20214;-56
2022/05/26 10:25:54;;;;;;;3.67;1.63;;;;;;;;;;5051886;28;20230;-55
2022/05/26 10:28:36;;;;;;;4.17;1.50;;;;;;;;;;5052056;28;20200;-57
2022/05/26 10:31:06;;;;;;;4.93;1.67;;;;;;;;;;5052042;28;20560;-55
2022/05/26 10:33:37;;;;;;;3.17;1.50;;;;;;;;;;5051876;28;20218;-55
2022/05/26 10:36:08;;;;;;;3.37;1.43;;;;;;;;;;5052047;28;20615;-56
2022/05/26 10:38:44;;;;;;;3.27;1.50;;;;;;;;;;5051849;28;20208;-55
2022/05/26 10:41:18;;;;;;;2.60;1.30;;;;;;;;;;5051856;28;20231;-56
2022/05/26 10:43:47;;;;;;;3.70;1.67;;;;;;;;;;5052116;28;20215;-55
2022/05/26 10:46:13;;;;;;;4.47;1.60;;;;;;;;;;5051857;28;20204;-56
2022/05/26 10:48:43;;;;;;;3.80;1.30;;;;;;;;;;5051987;28;20204;-55
2022/05/26 10:51:11;;;;;;;2.30;1.17;;;;;;;;;;5051978;28;20247;-56
2022/05/26 10:53:41;;;;;;;3.30;1.30;;;;;;;;;;5051690;28;20196;-56
2022/05/26 10:56:10;;;;;;;3.23;1.20;;;;;;;;;;5051871;28;20204;-56
2022/05/26 10:58:40;;;;;;;4.13;1.67;;;;;;;;;;5050878;28;20624;-56
2022/05/26 11:01:11;;;;;;;4.30;1.30;;;;;;;;;;5052643;28;20227;-56
2022/05/26 11:03:39;;;;;;;3.80;1.53;;;;;;;;;;5055347;28;20588;-57
2022/05/26 11:06:07;;;;;;;2.50;1.20;;;;;;;;;;5055504;28;20192;-56
2022/05/26 11:08:36;;;;;;;5.10;1.87;;;;;;;;;;5055393;28;20251;-56
2022/05/26 11:11:04;;;;;;;3.23;1.40;;;;;;;;;;5055670;28;20196;-55
2022/05/26 11:13:36;;;;;;;3.57;1.33;;;;;;;;;;5055518;28;20197;-57
2022/05/26 11:18:53;;;;;;;3.30;1.30;;;;;;;;;;5055489;28;20204;-57
2022/05/26 11:21:20;;;;;;;5.47;1.50;;;;;;;;;;5055184;28;20229;-57
2022/05/26 11:23:47;;;;;;;3.27;1.50;;;;;;;;;;5055150;28;20606;-56
2022/05/26 11:26:20;;;;;;;1.43;0.90;;;;;;;;;;5055073;28;20240;-56
2022/05/26 11:28:49;;;;;;;3.17;1.27;;;;;;;;;;5060432;28;20196;-56
2022/05/26 11:36:59;;;;;;;3.47;1.30;;;;;;;;;;5054673;28;20236;-57
2022/05/26 11:39:28;;;;;;;1.20;0.90;;;;;;;;;;5055007;28;20211;-55
2022/05/26 11:41:57;;;;;;;2.40;1.20;;;;;;;;;;5055079;28;20701;-56
2022/05/26 11:44:31;;;;;;;2.37;0.90;;;;;;;;;;5054873;28;20850;-56
2022/05/26 11:47:13;;;;;;;3.00;1.13;;;;;;;;;;5050926;28;20279;-58
2022/05/26 11:49:57;;;;;;;2.03;1.10;;;;;;;;;;5074365;28;20217;-56
2022/05/26 11:52:25;;;;;;;4.40;1.57;;;;;;;;;;5074549;28;20698;-56
2022/05/26 11:55:15;;;;;;;6.67;1.30;;;;;;;;;;5074975;28;20195;-57
2022/05/26 11:57:49;;;;;;;3.43;1.03;;;;;;;;;;5074808;28;20200;-55
2022/05/26 12:00:20;;;;;;;2.17;1.07;;;;;;;;;;5074086;28;20202;-56
2022/05/26 12:02:50;;;;;;;6.93;1.47;;;;;;;;;;5074833;28;20200;-54
2022/05/26 12:05:35;;;;;;;2.27;1.00;;;;;;;;;;5074287;28;20209;-54
2022/05/26 12:08:03;;;;;;;3.50;1.20;;;;;;;;;;5074498;28;20666;-54
2022/05/26 12:10:36;;;;;;;3.83;1.03;;;;;;;;;;5073991;28;20211;-54
2022/05/26 12:13:21;;;;;;;4.70;1.20;;;;;;;;;;5073297;28;20662;-54
2022/05/26 12:16:10;;;;;;;1.93;1.20;;;;;;;;;;5074410;28;20235;-54
2022/05/26 12:18:46;;;;;;;4.90;1.20;;;;;;;;;;5074180;28;20203;-54
2022/05/26 12:21:13;;;;;;;4.53;1.90;;;;;;;;;;5074306;28;20228;-53
2022/05/26 12:23:40;;;;;;;2.83;1.63;;;;;;;;;;5073957;28;20252;-53
2022/05/26 12:26:25;;;;;;;2.10;1.50;;;;;;;;;;5074164;28;20219;-53
2022/05/26 12:28:52;;;;;;;3.33;1.77;;;;;;;;;;5074115;28;20229;-53
2022/05/26 12:31:18;;;;;;;7.40;1.70;;;;;;;;;;5073557;28;20228;-53
2022/05/26 12:34:02;;;;;;;2.97;1.27;;;;;;;;;;5074061;28;20200;-53
2022/05/26 12:36:34;;;;;;;2.27;1.30;;;;;;;;;;5073540;28;20216;-54
2022/05/26 12:39:06;;;;;;;3.60;1.40;;;;;;;;;;5073822;28;20278;-53
2022/05/26 12:41:35;;;;;;;4.17;1.60;;;;;;;;;;5073773;28;20231;-54
2022/05/26 12:44:23;;;;;;;1.93;1.20;;;;;;;;;;5073972;28;20646;-54
2022/05/26 12:46:54;;;;;;;4.10;1.40;;;;;;;;;;5073965;28;20594;-53
2022/05/26 12:49:37;;;;;;;4.27;1.90;;;;;;;;;;5073076;28;20274;-54
2022/05/26 12:52:09;;;;;;;5.10;2.30;;;;;;;;;;5063243;28;20199;-53
2022/05/26 12:54:40;;;;;;;6.23;2.83;;;;;;;;;;5073656;28;20212;-53
2022/05/26 12:57:09;;;;;;;7.00;3.70;;;;;;;;;;5073487;28;20294;-53
2022/05/26 12:59:35;;;;;;;6.00;2.63;;;;;;;;;;5073091;28;20199;-55
2022/05/26 13:02:02;;;;;;;5.07;1.93;;;;;;;;;;5073314;28;20241;-53
2022/05/26 13:04:32;;;;;;;2.03;1.40;;;;;;;;;;5073438;28;20217;-53
2022/05/26 13:07:00;;;;;;;2.60;1.50;;;;;;;;;;5073476;28;20199;-52
2022/05/26 13:09:28;;;;;;;4.60;1.50;;;;;;;;;;5073238;28;20215;-53
2022/05/26 13:11:55;;;;;;;3.23;1.40;;;;;;;;;;5072698;28;20286;-54
2022/05/26 13:14:30;;;;;;;5.17;1.60;;;;;;;;;;5073023;28;20288;-54
2022/05/26 13:17:00;;;;;;;4.27;1.33;;;;;;;;;;5073209;28;20199;-53
2022/05/26 13:19:26;;;;;;;5.90;1.47;;;;;;;;;;5072572;28;20199;-53
2022/05/26 13:21:53;;;;;;;2.77;1.13;;;;;;;;;;5072707;28;20238;-54
2022/05/26 13:24:20;;;;;;;2.00;1.10;;;;;;;;;;5072340;28;20261;-54
2022/05/26 13:26:51;;;;;;;3.28;1.38;;;;;;;;;;5071841;28;20487;-53
2022/05/26 13:29:19;;;;;;;4.43;1.40;;;;;;;;;;5071530;28;20442;-55
2022/05/26 13:34:31;;;;;;;3.33;1.47;;;;;;;;;;5072737;28;20209;-53
2022/05/26 13:36:57;;;;;;;4.17;1.93;;;;;;;;;;5070681;28;20191;-54
2022/05/26 13:39:24;;;;;;;1.97;1.17;;;;;;;;;;5072714;28;20284;-53
2022/05/26 13:41:52;;;;;;;3.57;1.33;;;;;;;;;;5072626;28;20227;-54
2022/05/26 13:44:19;;;;;;;3.07;1.20;;;;;;;;;;5072760;28;20199;-53
2022/05/26 13:46:46;;;;;;;2.10;1.40;;;;;;;;;;5072411;28;20283;-53
2022/05/26 13:49:31;;;;;;;2.10;0.87;;;;;;;;;;5072790;28;20192;-53
2022/05/26 13:51:58;;;;;;;2.60;1.60;;;;;;;;;;5072688;28;20221;-54
2022/05/26 13:54:29;;;;;;;5.00;1.23;;;;;;;;;;5072452;28;20206;-53
2022/05/26 13:56:58;;;;;;;3.40;2.10;;;;;;;;;;5072533;28;20574;-54
2022/05/26 13:59:24;;;;;;;3.83;1.80;;;;;;;;;;5072394;28;20203;-54
2022/05/26 14:01:51;;;;;;;4.30;2.13;;;;;;;;;;5072216;28;20615;-54
2022/05/26 14:04:22;;;;;;;2.43;1.40;;;;;;;;;;5072307;28;20200;-54
2022/05/26 14:06:48;;;;;;;4.23;1.87;;;;;;;;;;5072304;28;20253;-54
2022/05/26 14:09:25;;;;;;;5.07;3.87;;;;;;;;;;5072147;28;20207;-54
2022/05/26 14:12:03;;;;;;;6.90;2.67;;;;;;;;;;5072144;28;20192;-54
2022/05/26 14:14:30;;;;;;;3.20;1.63;;;;;;;;;;5072098;28;20235;-54
2022/05/26 14:16:57;;;;;;;2.40;1.00;;;;;;;;;;5072232;28;20644;-54
2022/05/26 14:19:26;;;;;;;1.73;1.10;;;;;;;;;;5071948;28;20191;-54
2022/05/26 14:21:52;;;;;;;3.60;1.40;;;;;;;;;;5071904;28;20254;-54
2022/05/26 14:24:25;;;;;;;2.23;1.23;;;;;;;;;;5071773;28;20219;-54
2022/05/26 14:27:01;;;;;;;5.40;1.53;;;;;;;;;;5071630;28;20210;-54
2022/05/26 14:29:35;;;;;;;3.77;1.67;;;;;;;;;;5072021;28;20293;-54
2022/05/26 14:32:07;;;;;;;3.23;1.73;;;;;;;;;;5072068;28;20202;-53
2022/05/26 14:34:35;;;;;;;5.80;1.60;;;;;;;;;;5072011;28;20662;-54
2022/05/26 14:37:01;;;;;;;4.63;1.40;;;;;;;;;;5071413;28;20199;-54
2022/05/26 14:39:27;;;;;;;3.40;1.50;;;;;;;;;;5072074;28;20268;-54
2022/05/26 14:41:54;;;;;;;4.63;1.40;;;;;;;;;;5071981;28;20235;-54
2022/05/26 14:44:21;;;;;;;3.17;1.60;;;;;;;;;;5071850;28;20198;-54
2022/05/26 14:46:47;;;;;;;5.07;1.60;;;;;;;;;;5071973;28;20207;-55
2022/05/26 14:49:13;;;;;;;4.07;1.60;;;;;;;;;;5071992;28;20199;-53
2022/05/26 14:51:42;;;;;;;3.10;1.40;;;;;;;;;;5071768;28;20191;-53
2022/05/26 14:56:53;;;;;;;2.57;1.50;;;;;;;;;;5071723;28;20614;-54
2022/05/26 14:59:19;;;;;;;4.60;1.70;;;;;;;;;;5071728;28;20205;-53
2022/05/26 15:01:47;;;;;;;3.80;1.63;;;;;;;;;;5071701;28;20230;-54
2022/05/26 15:04:13;;;;;;;3.90;1.47;;;;;;;;;;5071395;28;20669;-53
2022/05/26 15:06:41;;;;;;;3.93;1.70;;;;;;;;;;5071555;28;20230;-54
2022/05/26 15:09:08;;;;;;;3.00;1.60;;;;;;;;;;5071691;28;20227;-53
2022/05/26 15:11:34;;;;;;;2.67;1.70;;;;;;;;;;5071667;28;20632;-53
2022/05/26 15:14:00;;;;;;;4.17;1.80;;;;;;;;;;5071419;28;20207;-54
2022/05/26 15:16:36;;;;;;;4.13;1.93;;;;;;;;;;5071448;28;20197;-54
2022/05/26 15:19:04;;;;;;;6.07;2.17;;;;;;;;;;5069396;28;20229;-54
2022/05/26 15:21:30;;;;;;;7.67;1.87;;;;;;;;;;5071108;28;20222;-53
2022/05/26 15:23:56;;;;;;;5.73;1.90;;;;;;;;;;5071224;28;20550;-53
2022/05/26 15:26:22;;;;;;;2.10;1.33;;;;;;;;;;5070951;28;20219;-53
2022/05/26 15:28:49;;;;;;;4.40;1.70;;;;;;;;;;5071088;28;20186;-53
2022/05/26 15:31:16;;;;;;;3.17;1.80;;;;;;;;;;5071048;28;20203;-53
2022/05/26 15:33:43;;;;;;;4.37;1.80;;;;;;;;;;5071030;28;20253;-53